sensor_id;sensor_type;location;lat;lon;timestamp;P1;durP1;ratioP1;P2;durP2;ratioP2
23304;SDS011;11821;51.456;8.844;2023-07-30T00:02:24;5.55;;;1.52;;
23304;SDS011;11821;51.456;8.844;2023-07-30T00:04:50;4.18;;;1.70;;
23304;SDS011;11821;51.456;8.844;2023-07-30T00:07:17;3.58;;;1.77;;
23304;SDS011;11821;51.456;8.844;2023-07-30T00:09:44;2.60;;;1.70;;
23304;SDS011;11821;51.456;8.844;2023-07-30T00:12:10;2.80;;;1.52;;
23304;SDS011;11821;51.456;8.844;2023-07-30T00:14:37;2.15;;;1.83;;
23304;SDS011;11821;51.456;8.844;2023-07-30T00:17:03;1.92;;;1.77;;
23304;SDS011;11821;51.456;8.844;2023-07-30T00:19:30;2.22;;;2.05;;
23304;SDS011;11821;51.456;8.844;2023-07-30T00:21:57;2.20;;;1.65;;
23304;SDS011;11821;51.456;8.844;2023-07-30T00:24:23;4.55;;;1.63;;
23304;SDS011;11821;51.456;8.844;2023-07-30T00:26:50;3.25;;;1.83;;
23304;SDS011;11821;51.456;8.844;2023-07-30T00:29:16;2.17;;;1.42;;
23304;SDS011;11821;51.456;8.844;2023-07-30T00:31:44;4.18;;;1.90;;
23304;SDS011;11821;51.456;8.844;2023-07-30T00:34:10;2.50;;;1.48;;
23304;SDS011;11821;51.456;8.844;2023-07-30T00:36:37;2.17;;;1.45;;
23304;SDS011;11821;51.456;8.844;2023-07-30T00:39:05;2.50;;;1.95;;
23304;SDS011;11821;51.456;8.844;2023-07-30T00:41:32;3.35;;;1.48;;
23304;SDS011;11821;51.456;8.844;2023-07-30T00:43:58;3.08;;;1.48;;
23304;SDS011;11821;51.456;8.844;2023-07-30T00:46:25;2.20;;;1.50;;
23304;SDS011;11821;51.456;8.844;2023-07-30T00:48:51;3.00;;;1.85;;
23304;SDS011;11821;51.456;8.844;2023-07-30T00:51:18;3.42;;;2.08;;
23304;SDS011;11821;51.456;8.844;2023-07-30T00:53:45;1.48;;;1.38;;
23304;SDS011;11821;51.456;8.844;2023-07-30T00:56:12;1.60;;;1.50;;
23304;SDS011;11821;51.456;8.844;2023-07-30T00:58:39;2.85;;;1.73;;
23304;SDS011;11821;51.456;8.844;2023-07-30T01:01:06;3.35;;;1.83;;
23304;SDS011;11821;51.456;8.844;2023-07-30T01:03:33;2.58;;;1.70;;
23304;SDS011;11821;51.456;8.844;2023-07-30T01:06:00;1.63;;;1.52;;
23304;SDS011;11821;51.456;8.844;2023-07-30T01:08:27;2.10;;;1.60;;
23304;SDS011;11821;51.456;8.844;2023-07-30T01:10:54;4.53;;;1.80;;
23304;SDS011;11821;51.456;8.844;2023-07-30T01:13:20;3.25;;;1.90;;
23304;SDS011;11821;51.456;8.844;2023-07-30T01:15:47;2.95;;;1.60;;
23304;SDS011;11821;51.456;8.844;2023-07-30T01:18:14;2.95;;;1.60;;
23304;SDS011;11821;51.456;8.844;2023-07-30T01:20:41;2.10;;;1.73;;
23304;SDS011;11821;51.456;8.844;2023-07-30T01:23:07;3.20;;;1.60;;
23304;SDS011;11821;51.456;8.844;2023-07-30T01:25:35;2.58;;;1.90;;
23304;SDS011;11821;51.456;8.844;2023-07-30T01:28:02;2.05;;;1.83;;
23304;SDS011;11821;51.456;8.844;2023-07-30T01:30:32;5.88;;;1.90;;
23304;SDS011;11821;51.456;8.844;2023-07-30T01:33:00;2.05;;;1.80;;
23304;SDS011;11821;51.456;8.844;2023-07-30T01:35:27;2.70;;;2.17;;
23304;SDS011;11821;51.456;8.844;2023-07-30T01:37:54;2.85;;;2.08;;
23304;SDS011;11821;51.456;8.844;2023-07-30T01:40:21;2.47;;;2.22;;
23304;SDS011;11821;51.456;8.844;2023-07-30T01:42:48;2.42;;;2.22;;
23304;SDS011;11821;51.456;8.844;2023-07-30T01:45:16;2.17;;;2.08;;
23304;SDS011;11821;51.456;8.844;2023-07-30T01:47:43;2.42;;;2.22;;
23304;SDS011;11821;51.456;8.844;2023-07-30T01:50:10;5.93;;;2.53;;
23304;SDS011;11821;51.456;8.844;2023-07-30T01:52:36;4.57;;;1.98;;
23304;SDS011;11821;51.456;8.844;2023-07-30T01:55:03;5.07;;;2.25;;
23304;SDS011;11821;51.456;8.844;2023-07-30T01:57:29;3.70;;;2.00;;
23304;SDS011;11821;51.456;8.844;2023-07-30T01:59:56;2.22;;;1.73;;
23304;SDS011;11821;51.456;8.844;2023-07-30T02:02:22;3.20;;;2.20;;
23304;SDS011;11821;51.456;8.844;2023-07-30T02:04:49;2.25;;;1.83;;
23304;SDS011;11821;51.456;8.844;2023-07-30T02:07:16;2.70;;;1.70;;
23304;SDS011;11821;51.456;8.844;2023-07-30T02:09:43;5.60;;;2.10;;
23304;SDS011;11821;51.456;8.844;2023-07-30T02:12:09;2.95;;;2.50;;
23304;SDS011;11821;51.456;8.844;2023-07-30T02:14:36;2.08;;;1.98;;
23304;SDS011;11821;51.456;8.844;2023-07-30T02:17:03;2.67;;;2.45;;
23304;SDS011;11821;51.456;8.844;2023-07-30T02:19:30;2.28;;;2.15;;
23304;SDS011;11821;51.456;8.844;2023-07-30T02:21:56;3.47;;;2.45;;
23304;SDS011;11821;51.456;8.844;2023-07-30T02:24:23;5.35;;;2.50;;
23304;SDS011;11821;51.456;8.844;2023-07-30T02:26:49;6.28;;;2.22;;
23304;SDS011;11821;51.456;8.844;2023-07-30T02:29:16;4.63;;;2.30;;
23304;SDS011;11821;51.456;8.844;2023-07-30T02:31:43;5.53;;;2.50;;
23304;SDS011;11821;51.456;8.844;2023-07-30T02:34:09;4.22;;;2.50;;
23304;SDS011;11821;51.456;8.844;2023-07-30T02:36:36;2.40;;;2.00;;
23304;SDS011;11821;51.456;8.844;2023-07-30T02:39:03;6.22;;;2.50;;
23304;SDS011;11821;51.456;8.844;2023-07-30T02:41:29;7.45;;;2.20;;
23304;SDS011;11821;51.456;8.844;2023-07-30T02:43:56;4.55;;;2.15;;
23304;SDS011;11821;51.456;8.844;2023-07-30T02:46:22;4.55;;;2.35;;
23304;SDS011;11821;51.456;8.844;2023-07-30T02:48:49;5.60;;;2.03;;
23304;SDS011;11821;51.456;8.844;2023-07-30T02:51:15;2.33;;;2.00;;
23304;SDS011;11821;51.456;8.844;2023-07-30T02:53:45;3.17;;;2.22;;
23304;SDS011;11821;51.456;8.844;2023-07-30T02:56:11;2.72;;;2.10;;
23304;SDS011;11821;51.456;8.844;2023-07-30T02:58:38;2.40;;;1.85;;
23304;SDS011;11821;51.456;8.844;2023-07-30T03:01:08;2.42;;;2.03;;
23304;SDS011;11821;51.456;8.844;2023-07-30T03:03:35;2.63;;;2.40;;
23304;SDS011;11821;51.456;8.844;2023-07-30T03:06:01;5.97;;;2.15;;
23304;SDS011;11821;51.456;8.844;2023-07-30T03:08:28;4.55;;;2.03;;
23304;SDS011;11821;51.456;8.844;2023-07-30T03:10:57;4.47;;;2.25;;
23304;SDS011;11821;51.456;8.844;2023-07-30T03:13:23;4.97;;;2.30;;
23304;SDS011;11821;51.456;8.844;2023-07-30T03:15:50;2.53;;;1.70;;
23304;SDS011;11821;51.456;8.844;2023-07-30T03:18:16;3.25;;;2.30;;
23304;SDS011;11821;51.456;8.844;2023-07-30T03:20:43;3.85;;;2.08;;
23304;SDS011;11821;51.456;8.844;2023-07-30T03:23:09;5.00;;;2.20;;
23304;SDS011;11821;51.456;8.844;2023-07-30T03:25:36;3.13;;;2.20;;
23304;SDS011;11821;51.456;8.844;2023-07-30T03:28:03;2.63;;;2.25;;
23304;SDS011;11821;51.456;8.844;2023-07-30T03:30:30;3.25;;;2.33;;
23304;SDS011;11821;51.456;8.844;2023-07-30T03:32:56;5.60;;;2.50;;
23304;SDS011;11821;51.456;8.844;2023-07-30T03:35:26;2.50;;;1.90;;
23304;SDS011;11821;51.456;8.844;2023-07-30T03:37:52;13.35;;;3.45;;
23304;SDS011;11821;51.456;8.844;2023-07-30T03:40:19;6.57;;;2.33;;
23304;SDS011;11821;51.456;8.844;2023-07-30T03:42:45;2.40;;;1.85;;
23304;SDS011;11821;51.456;8.844;2023-07-30T03:45:13;8.90;;;2.10;;
23304;SDS011;11821;51.456;8.844;2023-07-30T03:47:39;4.60;;;2.00;;
23304;SDS011;11821;51.456;8.844;2023-07-30T03:50:06;4.88;;;2.00;;
23304;SDS011;11821;51.456;8.844;2023-07-30T03:52:33;5.65;;;2.17;;
23304;SDS011;11821;51.456;8.844;2023-07-30T03:55:00;6.25;;;1.98;;
23304;SDS011;11821;51.456;8.844;2023-07-30T03:57:26;4.78;;;2.40;;
23304;SDS011;11821;51.456;8.844;2023-07-30T03:59:53;2.90;;;2.15;;
23304;SDS011;11821;51.456;8.844;2023-07-30T04:02:19;3.90;;;2.20;;
23304;SDS011;11821;51.456;8.844;2023-07-30T04:04:46;3.45;;;2.38;;
23304;SDS011;11821;51.456;8.844;2023-07-30T04:07:15;4.90;;;2.63;;
23304;SDS011;11821;51.456;8.844;2023-07-30T04:09:42;4.60;;;2.60;;
23304;SDS011;11821;51.456;8.844;2023-07-30T04:12:08;2.10;;;1.90;;
23304;SDS011;11821;51.456;8.844;2023-07-30T04:14:36;3.30;;;2.60;;
23304;SDS011;11821;51.456;8.844;2023-07-30T04:17:03;5.00;;;2.40;;
23304;SDS011;11821;51.456;8.844;2023-07-30T04:19:29;5.75;;;2.47;;
23304;SDS011;11821;51.456;8.844;2023-07-30T04:21:56;3.08;;;2.10;;
23304;SDS011;11821;51.456;8.844;2023-07-30T04:24:24;4.90;;;2.58;;
23304;SDS011;11821;51.456;8.844;2023-07-30T04:26:52;7.53;;;2.25;;
23304;SDS011;11821;51.456;8.844;2023-07-30T04:29:18;5.72;;;3.33;;
23304;SDS011;11821;51.456;8.844;2023-07-30T04:31:45;3.65;;;2.25;;
23304;SDS011;11821;51.456;8.844;2023-07-30T04:34:11;8.73;;;2.65;;
23304;SDS011;11821;51.456;8.844;2023-07-30T04:36:39;5.95;;;2.33;;
23304;SDS011;11821;51.456;8.844;2023-07-30T04:39:08;6.53;;;2.97;;
23304;SDS011;11821;51.456;8.844;2023-07-30T04:41:34;5.68;;;2.38;;
23304;SDS011;11821;51.456;8.844;2023-07-30T04:44:01;3.33;;;2.45;;
23304;SDS011;11821;51.456;8.844;2023-07-30T04:46:29;5.10;;;2.25;;
23304;SDS011;11821;51.456;8.844;2023-07-30T04:48:56;2.55;;;2.08;;
23304;SDS011;11821;51.456;8.844;2023-07-30T04:51:23;5.72;;;2.30;;
23304;SDS011;11821;51.456;8.844;2023-07-30T04:53:49;5.78;;;2.30;;
23304;SDS011;11821;51.456;8.844;2023-07-30T04:56:16;3.97;;;2.15;;
23304;SDS011;11821;51.456;8.844;2023-07-30T04:58:42;3.75;;;1.95;;
23304;SDS011;11821;51.456;8.844;2023-07-30T05:01:09;4.43;;;2.15;;
23304;SDS011;11821;51.456;8.844;2023-07-30T05:03:35;4.28;;;2.30;;
23304;SDS011;11821;51.456;8.844;2023-07-30T05:06:02;2.60;;;2.03;;
23304;SDS011;11821;51.456;8.844;2023-07-30T05:08:29;2.22;;;2.00;;
23304;SDS011;11821;51.456;8.844;2023-07-30T05:10:55;5.60;;;1.98;;
23304;SDS011;11821;51.456;8.844;2023-07-30T05:13:22;2.17;;;2.00;;
23304;SDS011;11821;51.456;8.844;2023-07-30T05:15:48;4.03;;;2.17;;
23304;SDS011;11821;51.456;8.844;2023-07-30T05:18:15;3.58;;;2.30;;
23304;SDS011;11821;51.456;8.844;2023-07-30T05:20:41;2.20;;;2.00;;
23304;SDS011;11821;51.456;8.844;2023-07-30T05:23:08;2.78;;;2.20;;
23304;SDS011;11821;51.456;8.844;2023-07-30T05:25:34;3.67;;;2.30;;
23304;SDS011;11821;51.456;8.844;2023-07-30T05:28:01;1.98;;;1.88;;
23304;SDS011;11821;51.456;8.844;2023-07-30T05:30:27;3.33;;;2.45;;
23304;SDS011;11821;51.456;8.844;2023-07-30T05:32:54;5.32;;;2.10;;
23304;SDS011;11821;51.456;8.844;2023-07-30T05:35:20;4.32;;;2.53;;
23304;SDS011;11821;51.456;8.844;2023-07-30T05:37:47;2.97;;;2.13;;
23304;SDS011;11821;51.456;8.844;2023-07-30T05:40:13;7.93;;;2.78;;
23304;SDS011;11821;51.456;8.844;2023-07-30T05:42:40;3.40;;;1.90;;
23304;SDS011;11821;51.456;8.844;2023-07-30T05:45:07;4.45;;;2.17;;
23304;SDS011;11821;51.456;8.844;2023-07-30T05:47:33;3.65;;;2.17;;
23304;SDS011;11821;51.456;8.844;2023-07-30T05:50:01;7.85;;;2.00;;
23304;SDS011;11821;51.456;8.844;2023-07-30T05:52:27;3.90;;;1.60;;
23304;SDS011;11821;51.456;8.844;2023-07-30T05:54:54;4.88;;;1.85;;
23304;SDS011;11821;51.456;8.844;2023-07-30T05:57:21;4.95;;;2.05;;
23304;SDS011;11821;51.456;8.844;2023-07-30T05:59:47;2.47;;;2.00;;
23304;SDS011;11821;51.456;8.844;2023-07-30T06:02:14;2.55;;;1.48;;
23304;SDS011;11821;51.456;8.844;2023-07-30T06:04:40;6.45;;;2.20;;
23304;SDS011;11821;51.456;8.844;2023-07-30T06:07:07;3.63;;;2.10;;
23304;SDS011;11821;51.456;8.844;2023-07-30T06:09:33;4.72;;;2.30;;
23304;SDS011;11821;51.456;8.844;2023-07-30T06:12:00;3.13;;;2.30;;
23304;SDS011;11821;51.456;8.844;2023-07-30T06:14:27;3.15;;;2.15;;
23304;SDS011;11821;51.456;8.844;2023-07-30T06:16:53;5.63;;;2.38;;
23304;SDS011;11821;51.456;8.844;2023-07-30T06:19:20;6.45;;;2.25;;
23304;SDS011;11821;51.456;8.844;2023-07-30T06:21:47;1.60;;;1.50;;
23304;SDS011;11821;51.456;8.844;2023-07-30T06:24:13;6.03;;;2.67;;
23304;SDS011;11821;51.456;8.844;2023-07-30T06:26:40;4.32;;;2.22;;
23304;SDS011;11821;51.456;8.844;2023-07-30T06:29:06;5.70;;;2.50;;
23304;SDS011;11821;51.456;8.844;2023-07-30T06:31:33;2.83;;;2.42;;
23304;SDS011;11821;51.456;8.844;2023-07-30T06:33:59;4.97;;;2.53;;
23304;SDS011;11821;51.456;8.844;2023-07-30T06:36:26;5.35;;;2.40;;
23304;SDS011;11821;51.456;8.844;2023-07-30T06:38:52;6.00;;;2.13;;
23304;SDS011;11821;51.456;8.844;2023-07-30T06:41:19;2.33;;;2.10;;
23304;SDS011;11821;51.456;8.844;2023-07-30T06:43:46;5.25;;;2.55;;
23304;SDS011;11821;51.456;8.844;2023-07-30T06:46:13;3.97;;;1.83;;
23304;SDS011;11821;51.456;8.844;2023-07-30T06:48:39;3.00;;;1.98;;
23304;SDS011;11821;51.456;8.844;2023-07-30T06:51:06;3.60;;;2.10;;
23304;SDS011;11821;51.456;8.844;2023-07-30T06:53:33;2.72;;;1.92;;
23304;SDS011;11821;51.456;8.844;2023-07-30T06:55:59;9.43;;;2.47;;
23304;SDS011;11821;51.456;8.844;2023-07-30T06:58:26;2.25;;;2.08;;
23304;SDS011;11821;51.456;8.844;2023-07-30T07:00:52;3.22;;;2.88;;
23304;SDS011;11821;51.456;8.844;2023-07-30T07:03:19;3.78;;;2.53;;
23304;SDS011;11821;51.456;8.844;2023-07-30T07:05:52;3.15;;;2.30;;
23304;SDS011;11821;51.456;8.844;2023-07-30T07:08:19;6.53;;;2.40;;
23304;SDS011;11821;51.456;8.844;2023-07-30T07:10:46;2.28;;;2.08;;
23304;SDS011;11821;51.456;8.844;2023-07-30T07:13:12;2.60;;;1.98;;
23304;SDS011;11821;51.456;8.844;2023-07-30T07:15:44;4.70;;;1.83;;
23304;SDS011;11821;51.456;8.844;2023-07-30T07:18:10;2.65;;;1.67;;
23304;SDS011;11821;51.456;8.844;2023-07-30T07:20:37;2.83;;;1.60;;
23304;SDS011;11821;51.456;8.844;2023-07-30T07:23:04;2.25;;;2.05;;
23304;SDS011;11821;51.456;8.844;2023-07-30T07:25:30;4.25;;;2.10;;
23304;SDS011;11821;51.456;8.844;2023-07-30T07:27:57;3.85;;;1.60;;
23304;SDS011;11821;51.456;8.844;2023-07-30T07:30:23;4.95;;;1.70;;
23304;SDS011;11821;51.456;8.844;2023-07-30T07:32:50;2.03;;;1.50;;
23304;SDS011;11821;51.456;8.844;2023-07-30T07:35:18;4.75;;;1.65;;
23304;SDS011;11821;51.456;8.844;2023-07-30T07:37:45;4.03;;;1.58;;
23304;SDS011;11821;51.456;8.844;2023-07-30T07:40:12;2.90;;;1.30;;
23304;SDS011;11821;51.456;8.844;2023-07-30T07:42:38;2.03;;;1.17;;
23304;SDS011;11821;51.456;8.844;2023-07-30T07:45:06;7.45;;;1.20;;
23304;SDS011;11821;51.456;8.844;2023-07-30T07:47:32;2.60;;;1.20;;
23304;SDS011;11821;51.456;8.844;2023-07-30T07:49:59;2.75;;;1.75;;
23304;SDS011;11821;51.456;8.844;2023-07-30T07:52:25;3.08;;;1.15;;
23304;SDS011;11821;51.456;8.844;2023-07-30T07:54:52;9.23;;;1.38;;
23304;SDS011;11821;51.456;8.844;2023-07-30T07:57:18;2.65;;;1.20;;
23304;SDS011;11821;51.456;8.844;2023-07-30T07:59:45;1.67;;;0.95;;
23304;SDS011;11821;51.456;8.844;2023-07-30T08:02:12;6.35;;;2.03;;
23304;SDS011;11821;51.456;8.844;2023-07-30T08:04:39;4.43;;;1.25;;
23304;SDS011;11821;51.456;8.844;2023-07-30T08:07:05;3.05;;;1.30;;
23304;SDS011;11821;51.456;8.844;2023-07-30T08:09:32;4.53;;;1.40;;
23304;SDS011;11821;51.456;8.844;2023-07-30T08:12:01;3.25;;;1.58;;
23304;SDS011;11821;51.456;8.844;2023-07-30T08:14:28;2.35;;;1.20;;
23304;SDS011;11821;51.456;8.844;2023-07-30T08:16:55;2.83;;;1.30;;
23304;SDS011;11821;51.456;8.844;2023-07-30T08:19:22;2.85;;;1.40;;
23304;SDS011;11821;51.456;8.844;2023-07-30T08:21:48;2.55;;;1.13;;
23304;SDS011;11821;51.456;8.844;2023-07-30T08:24:15;4.75;;;1.40;;
23304;SDS011;11821;51.456;8.844;2023-07-30T08:26:41;2.28;;;1.30;;
23304;SDS011;11821;51.456;8.844;2023-07-30T08:29:08;2.67;;;1.30;;
23304;SDS011;11821;51.456;8.844;2023-07-30T08:31:35;2.45;;;1.25;;
23304;SDS011;11821;51.456;8.844;2023-07-30T08:34:02;1.92;;;1.02;;
23304;SDS011;11821;51.456;8.844;2023-07-30T08:36:28;4.30;;;1.27;;
23304;SDS011;11821;51.456;8.844;2023-07-30T08:38:55;3.38;;;1.30;;
23304;SDS011;11821;51.456;8.844;2023-07-30T08:41:22;2.22;;;1.02;;
23304;SDS011;11821;51.456;8.844;2023-07-30T08:43:48;2.17;;;0.90;;
23304;SDS011;11821;51.456;8.844;2023-07-30T08:46:15;4.13;;;1.30;;
23304;SDS011;11821;51.456;8.844;2023-07-30T08:48:42;3.80;;;0.90;;
23304;SDS011;11821;51.456;8.844;2023-07-30T08:51:09;5.40;;;1.20;;
23304;SDS011;11821;51.456;8.844;2023-07-30T08:53:36;2.67;;;1.40;;
23304;SDS011;11821;51.456;8.844;2023-07-30T08:56:03;6.18;;;1.25;;
23304;SDS011;11821;51.456;8.844;2023-07-30T08:58:31;4.75;;;1.17;;
23304;SDS011;11821;51.456;8.844;2023-07-30T09:00:59;2.88;;;1.33;;
23304;SDS011;11821;51.456;8.844;2023-07-30T09:03:26;2.95;;;1.10;;
23304;SDS011;11821;51.456;8.844;2023-07-30T09:05:53;4.38;;;1.50;;
23304;SDS011;11821;51.456;8.844;2023-07-30T09:08:20;3.47;;;1.08;;
23304;SDS011;11821;51.456;8.844;2023-07-30T09:10:48;6.18;;;1.17;;
23304;SDS011;11821;51.456;8.844;2023-07-30T09:13:20;2.05;;;1.00;;
23304;SDS011;11821;51.456;8.844;2023-07-30T09:15:47;1.10;;;0.80;;
23304;SDS011;11821;51.456;8.844;2023-07-30T09:18:19;3.25;;;1.00;;
23304;SDS011;11821;51.456;8.844;2023-07-30T09:20:46;1.83;;;1.00;;
23304;SDS011;11821;51.456;8.844;2023-07-30T09:23:13;3.95;;;1.40;;
23304;SDS011;11821;51.456;8.844;2023-07-30T09:25:40;2.17;;;0.95;;
23304;SDS011;11821;51.456;8.844;2023-07-30T09:28:06;4.10;;;1.00;;
23304;SDS011;11821;51.456;8.844;2023-07-30T09:30:33;3.10;;;1.00;;
23304;SDS011;11821;51.456;8.844;2023-07-30T09:33:00;2.97;;;0.98;;
23304;SDS011;11821;51.456;8.844;2023-07-30T09:35:32;2.20;;;1.02;;
23304;SDS011;11821;51.456;8.844;2023-07-30T09:38:00;1.90;;;1.08;;
23304;SDS011;11821;51.456;8.844;2023-07-30T09:40:30;1.73;;;1.00;;
23304;SDS011;11821;51.456;8.844;2023-07-30T09:42:57;2.42;;;1.15;;
23304;SDS011;11821;51.456;8.844;2023-07-30T09:45:24;2.33;;;1.00;;
23304;SDS011;11821;51.456;8.844;2023-07-30T09:47:52;3.47;;;1.15;;
23304;SDS011;11821;51.456;8.844;2023-07-30T09:50:18;2.28;;;1.10;;
23304;SDS011;11821;51.456;8.844;2023-07-30T09:52:45;1.90;;;0.80;;
23304;SDS011;11821;51.456;8.844;2023-07-30T09:55:12;3.53;;;1.13;;
23304;SDS011;11821;51.456;8.844;2023-07-30T09:57:38;2.58;;;1.20;;
23304;SDS011;11821;51.456;8.844;2023-07-30T10:00:06;3.50;;;1.45;;
23304;SDS011;11821;51.456;8.844;2023-07-30T10:02:38;3.25;;;1.00;;
23304;SDS011;11821;51.456;8.844;2023-07-30T10:05:08;1.08;;;0.98;;
23304;SDS011;11821;51.456;8.844;2023-07-30T10:07:38;3.83;;;1.17;;
23304;SDS011;11821;51.456;8.844;2023-07-30T10:10:07;2.53;;;1.25;;
23304;SDS011;11821;51.456;8.844;2023-07-30T10:12:35;2.78;;;0.90;;
23304;SDS011;11821;51.456;8.844;2023-07-30T10:15:02;1.33;;;0.70;;
23304;SDS011;11821;51.456;8.844;2023-07-30T10:17:28;2.33;;;1.00;;
23304;SDS011;11821;51.456;8.844;2023-07-30T10:19:58;3.10;;;1.20;;
23304;SDS011;11821;51.456;8.844;2023-07-30T10:22:44;3.28;;;1.20;;
23304;SDS011;11821;51.456;8.844;2023-07-30T10:25:12;1.73;;;0.90;;
23304;SDS011;11821;51.456;8.844;2023-07-30T10:27:39;2.63;;;1.10;;
23304;SDS011;11821;51.456;8.844;2023-07-30T10:35:37;3.13;;;1.40;;
23304;SDS011;11821;51.456;8.844;2023-07-30T10:38:18;2.70;;;1.27;;
23304;SDS011;11821;51.456;8.844;2023-07-30T10:41:00;2.10;;;1.13;;
23304;SDS011;11821;51.456;8.844;2023-07-30T10:43:28;2.22;;;1.00;;
23304;SDS011;11821;51.456;8.844;2023-07-30T10:45:55;2.58;;;1.38;;
23304;SDS011;11821;51.456;8.844;2023-07-30T10:48:31;3.75;;;1.23;;
23304;SDS011;11821;51.456;8.844;2023-07-30T10:51:02;3.33;;;1.13;;
23304;SDS011;11821;51.456;8.844;2023-07-30T10:53:29;2.22;;;1.20;;
23304;SDS011;11821;51.456;8.844;2023-07-30T10:55:59;2.85;;;1.60;;
23304;SDS011;11821;51.456;8.844;2023-07-30T10:58:29;2.25;;;1.17;;
23304;SDS011;11821;51.456;8.844;2023-07-30T11:00:56;3.28;;;1.58;;
23304;SDS011;11821;51.456;8.844;2023-07-30T11:03:26;4.22;;;1.65;;
23304;SDS011;11821;51.456;8.844;2023-07-30T11:05:53;1.75;;;1.40;;
23304;SDS011;11821;51.456;8.844;2023-07-30T11:10:58;5.93;;;1.95;;
23304;SDS011;11821;51.456;8.844;2023-07-30T11:13:29;2.25;;;1.60;;
23304;SDS011;11821;51.456;8.844;2023-07-30T11:15:56;4.60;;;1.77;;
23304;SDS011;11821;51.456;8.844;2023-07-30T11:18:22;5.15;;;1.98;;
23304;SDS011;11821;51.456;8.844;2023-07-30T11:20:49;5.78;;;2.00;;
23304;SDS011;11821;51.456;8.844;2023-07-30T11:23:22;7.30;;;1.65;;
23304;SDS011;11821;51.456;8.844;2023-07-30T11:25:49;4.80;;;1.95;;
23304;SDS011;11821;51.456;8.844;2023-07-30T11:28:29;6.28;;;2.10;;
23304;SDS011;11821;51.456;8.844;2023-07-30T11:30:57;3.00;;;1.83;;
23304;SDS011;11821;51.456;8.844;2023-07-30T11:33:25;2.55;;;1.67;;
23304;SDS011;11821;51.456;8.844;2023-07-30T11:35:51;3.63;;;1.67;;
23304;SDS011;11821;51.456;8.844;2023-07-30T11:38:18;1.92;;;1.77;;
23304;SDS011;11821;51.456;8.844;2023-07-30T11:40:46;3.08;;;1.88;;
23304;SDS011;11821;51.456;8.844;2023-07-30T11:43:13;4.47;;;1.50;;
23304;SDS011;11821;51.456;8.844;2023-07-30T11:45:39;3.53;;;1.90;;
23304;SDS011;11821;51.456;8.844;2023-07-30T11:48:07;20.58;;;1.98;;
23304;SDS011;11821;51.456;8.844;2023-07-30T11:50:47;4.20;;;2.00;;
23304;SDS011;11821;51.456;8.844;2023-07-30T11:53:14;7.20;;;2.40;;
23304;SDS011;11821;51.456;8.844;2023-07-30T11:55:41;3.42;;;1.48;;
23304;SDS011;11821;51.456;8.844;2023-07-30T11:58:08;5.78;;;1.90;;
23304;SDS011;11821;51.456;8.844;2023-07-30T12:00:35;5.57;;;1.75;;
23304;SDS011;11821;51.456;8.844;2023-07-30T12:03:03;4.78;;;1.40;;
23304;SDS011;11821;51.456;8.844;2023-07-30T12:05:33;3.38;;;1.40;;
23304;SDS011;11821;51.456;8.844;2023-07-30T12:08:04;4.82;;;1.52;;
23304;SDS011;11821;51.456;8.844;2023-07-30T12:12:59;5.60;;;1.27;;
23304;SDS011;11821;51.456;8.844;2023-07-30T12:15:25;3.72;;;1.20;;
23304;SDS011;11821;51.456;8.844;2023-07-30T12:17:53;4.85;;;1.27;;
23304;SDS011;11821;51.456;8.844;2023-07-30T12:20:19;4.93;;;1.30;;
23304;SDS011;11821;51.456;8.844;2023-07-30T12:22:46;4.07;;;1.63;;
23304;SDS011;11821;51.456;8.844;2023-07-30T12:25:13;2.85;;;1.20;;
23304;SDS011;11821;51.456;8.844;2023-07-30T12:27:39;3.13;;;1.08;;
23304;SDS011;11821;51.456;8.844;2023-07-30T12:30:06;2.47;;;1.17;;
23304;SDS011;11821;51.456;8.844;2023-07-30T12:32:33;4.45;;;1.58;;
23304;SDS011;11821;51.456;8.844;2023-07-30T12:34:59;3.67;;;0.93;;
23304;SDS011;11821;51.456;8.844;2023-07-30T12:37:26;3.92;;;1.10;;
23304;SDS011;11821;51.456;8.844;2023-07-30T12:39:53;3.30;;;1.08;;
23304;SDS011;11821;51.456;8.844;2023-07-30T12:42:19;4.13;;;1.00;;
23304;SDS011;11821;51.456;8.844;2023-07-30T12:44:46;2.25;;;1.20;;
23304;SDS011;11821;51.456;8.844;2023-07-30T12:47:12;2.55;;;1.00;;
23304;SDS011;11821;51.456;8.844;2023-07-30T12:49:39;2.15;;;0.95;;
23304;SDS011;11821;51.456;8.844;2023-07-30T12:52:05;3.67;;;0.98;;
23304;SDS011;11821;51.456;8.844;2023-07-30T12:54:32;3.70;;;1.38;;
23304;SDS011;11821;51.456;8.844;2023-07-30T12:56:59;3.45;;;1.10;;
23304;SDS011;11821;51.456;8.844;2023-07-30T12:59:25;2.38;;;0.90;;
23304;SDS011;11821;51.456;8.844;2023-07-30T13:01:52;4.82;;;1.17;;
23304;SDS011;11821;51.456;8.844;2023-07-30T13:04:18;5.47;;;1.48;;
23304;SDS011;11821;51.456;8.844;2023-07-30T13:06:46;3.50;;;1.27;;
23304;SDS011;11821;51.456;8.844;2023-07-30T13:09:12;3.83;;;1.02;;
23304;SDS011;11821;51.456;8.844;2023-07-30T13:11:39;4.93;;;1.17;;
23304;SDS011;11821;51.456;8.844;2023-07-30T13:14:05;2.65;;;0.98;;
23304;SDS011;11821;51.456;8.844;2023-07-30T13:16:31;3.95;;;0.85;;
23304;SDS011;11821;51.456;8.844;2023-07-30T13:18:57;2.85;;;1.20;;
23304;SDS011;11821;51.456;8.844;2023-07-30T13:21:24;2.65;;;0.90;;
23304;SDS011;11821;51.456;8.844;2023-07-30T13:23:50;4.15;;;1.42;;
23304;SDS011;11821;51.456;8.844;2023-07-30T13:26:18;1.90;;;0.85;;
23304;SDS011;11821;51.456;8.844;2023-07-30T13:28:44;1.73;;;0.90;;
23304;SDS011;11821;51.456;8.844;2023-07-30T13:31:11;3.58;;;1.00;;
23304;SDS011;11821;51.456;8.844;2023-07-30T13:33:37;4.82;;;1.50;;
23304;SDS011;11821;51.456;8.844;2023-07-30T13:36:05;2.90;;;1.08;;
23304;SDS011;11821;51.456;8.844;2023-07-30T13:38:31;4.03;;;1.55;;
23304;SDS011;11821;51.456;8.844;2023-07-30T13:40:57;5.10;;;0.98;;
23304;SDS011;11821;51.456;8.844;2023-07-30T13:43:24;4.35;;;1.48;;
23304;SDS011;11821;51.456;8.844;2023-07-30T13:45:50;4.07;;;1.02;;
23304;SDS011;11821;51.456;8.844;2023-07-30T13:48:18;4.55;;;1.00;;
23304;SDS011;11821;51.456;8.844;2023-07-30T13:50:44;1.92;;;0.98;;
23304;SDS011;11821;51.456;8.844;2023-07-30T13:53:11;2.45;;;0.90;;
23304;SDS011;11821;51.456;8.844;2023-07-30T13:55:38;3.17;;;0.90;;
23304;SDS011;11821;51.456;8.844;2023-07-30T13:58:04;3.53;;;1.20;;
23304;SDS011;11821;51.456;8.844;2023-07-30T14:00:31;1.50;;;0.60;;
23304;SDS011;11821;51.456;8.844;2023-07-30T14:02:57;1.95;;;0.60;;
23304;SDS011;11821;51.456;8.844;2023-07-30T14:05:24;4.07;;;0.95;;
23304;SDS011;11821;51.456;8.844;2023-07-30T14:07:51;3.25;;;0.90;;
23304;SDS011;11821;51.456;8.844;2023-07-30T14:10:19;2.78;;;0.80;;
23304;SDS011;11821;51.456;8.844;2023-07-30T14:12:46;3.72;;;1.17;;
23304;SDS011;11821;51.456;8.844;2023-07-30T14:15:12;4.00;;;1.25;;
23304;SDS011;11821;51.456;8.844;2023-07-30T14:17:40;1.85;;;1.02;;
23304;SDS011;11821;51.456;8.844;2023-07-30T14:20:07;5.75;;;1.20;;
23304;SDS011;11821;51.456;8.844;2023-07-30T14:22:34;3.20;;;1.00;;
23304;SDS011;11821;51.456;8.844;2023-07-30T14:25:01;3.70;;;0.90;;
23304;SDS011;11821;51.456;8.844;2023-07-30T14:27:28;3.33;;;0.80;;
23304;SDS011;11821;51.456;8.844;2023-07-30T14:29:55;3.75;;;0.95;;
23304;SDS011;11821;51.456;8.844;2023-07-30T14:32:22;3.20;;;1.00;;
23304;SDS011;11821;51.456;8.844;2023-07-30T14:34:48;1.85;;;1.00;;
23304;SDS011;11821;51.456;8.844;2023-07-30T14:37:15;1.70;;;0.80;;
23304;SDS011;11821;51.456;8.844;2023-07-30T14:39:42;3.25;;;1.27;;
23304;SDS011;11821;51.456;8.844;2023-07-30T14:42:09;3.28;;;1.05;;
23304;SDS011;11821;51.456;8.844;2023-07-30T14:44:36;2.22;;;1.00;;
23304;SDS011;11821;51.456;8.844;2023-07-30T14:47:02;4.55;;;1.15;;
23304;SDS011;11821;51.456;8.844;2023-07-30T14:49:30;3.47;;;0.93;;
23304;SDS011;11821;51.456;8.844;2023-07-30T14:52:00;4.18;;;1.33;;
23304;SDS011;11821;51.456;8.844;2023-07-30T14:54:27;3.08;;;0.80;;
23304;SDS011;11821;51.456;8.844;2023-07-30T14:56:53;3.47;;;1.00;;
23304;SDS011;11821;51.456;8.844;2023-07-30T14:59:20;2.13;;;0.82;;